Pagina principală
METAR-TAF:

METAR-TAF

Aeroporturi :

Cajamarca, Peru

Latitudine: 07-08S, longitudine: 078-28W, elevație: 2620 m

Observații meteo curente

Raportul a fost făcut în urmă cu 16 de minute, la 10:00 UTC
Vânt calm
Temperatură 9°C
Umiditate 93%
Presiune 1028 hPa
Vizibilitate de 10 km sau mai mult
Nori puțini la o înălțime de 2300 picior
Nori împrăștiați la o înălțime de 5000 picior

METAR: SPJR 141000Z 00000KT 9999 FEW023 SCT050 09/08 Q1028 RMK PP000

Ora: 05:16 (10:16 UTC)

Prognoză

Raportul a fost făcut în urmă cu 17 ore și 11 de minute, la 17:05 UTC
Prognoză valabilă de la 13 ora 18 UTC la 14 ora 18 UTC
Vânt 5 kt de la Sud
Vizibilitate de 10 km sau mai mult
Nori puțini la o înălțime de 2500 picior
Nori împrăștiați la o înălțime de 5000 picior

TAF: SPJR 131705Z 1318/1418 19005KT 9999 FEW025 SCT050 TX22/1319Z TN08/1411Z

Observații și prognoze meteo pentru peste 4.000 de aeroporturi (rapoarte METAR și TAF).

Stațiile disponibile sunt reprezentate pe hartă prin puncte galbene și roșii.

Țineți indicatorul mouse-ului pe punctul dorit pentru a vedea denumirea stației.

Apoi, faceți clic pentru a vedea observațiile și prognozele meteorologice.

Pentru a schimba harta: Pentru mărire, faceți clic pe butoanele verzi cu cruce neagră; pentru micșorare, pe butonul verde cu o liniuță; pentru hărți învecinate, pe săgețile verzi.


METAR-TAF: